Time;durP1;ratioP1;P1;durP2;ratioP2;P2;SDS_P1;SDS_P2;PMS_P1;PMS_P2;Temp;Humidity;BMP_temperature;BMP_pressure;BME280_temperature;BME280_humidity;BME280_pressure;Samples;Min_cycle;Max_cycle;Signal;HPM_P1;HPM_P2
2021/12/26 00:00:21;;;;;;;6.30;3.00;;;;;;;;;;5088362;28;20134;-78
2021/12/26 00:02:47;;;;;;;5.75;2.55;;;;;;;;;;5089779;28;20101;-80
2021/12/26 00:05:13;;;;;;;5.05;2.65;;;;;;;;;;5080816;28;20052;-79
2021/12/26 00:07:40;;;;;;;6.60;2.33;;;;;;;;;;5073357;28;20083;-78
2021/12/26 00:10:07;;;;;;;8.38;2.78;;;;;;;;;;5070346;28;20036;-79
2021/12/26 00:12:33;;;;;;;5.38;2.20;;;;;;;;;;5086786;28;20053;-78
2021/12/26 00:14:59;;;;;;;5.00;2.33;;;;;;;;;;5073574;28;20539;-79
2021/12/26 00:17:25;;;;;;;6.75;2.10;;;;;;;;;;5074525;28;20043;-78
2021/12/26 00:19:51;;;;;;;8.48;2.40;;;;;;;;;;5103579;28;20075;-78
2021/12/26 00:22:17;;;;;;;6.78;2.38;;;;;;;;;;5072146;28;20225;-78
2021/12/26 00:24:45;;;;;;;5.97;3.20;;;;;;;;;;5088030;28;20043;-78
2021/12/26 00:27:12;;;;;;;4.70;2.22;;;;;;;;;;5078003;28;20074;-78
2021/12/26 00:29:38;;;;;;;7.25;2.35;;;;;;;;;;5128688;27;20115;-79
2021/12/26 00:32:06;;;;;;;4.72;2.72;;;;;;;;;;5110482;28;20504;-78
2021/12/26 00:34:32;;;;;;;7.57;2.80;;;;;;;;;;5110433;28;20070;-78
2021/12/26 00:36:58;;;;;;;8.15;2.83;;;;;;;;;;5107067;28;20032;-78
2021/12/26 00:39:24;;;;;;;5.90;3.13;;;;;;;;;;5121660;27;20451;-78
2021/12/26 00:41:52;;;;;;;5.45;2.90;;;;;;;;;;5106170;28;20051;-78
2021/12/26 00:44:18;;;;;;;5.38;3.03;;;;;;;;;;5121550;27;20043;-79
2021/12/26 00:46:45;;;;;;;5.45;2.90;;;;;;;;;;5110141;28;20126;-78
2021/12/26 00:49:11;;;;;;;9.23;2.85;;;;;;;;;;5127758;27;20359;-79
2021/12/26 00:51:37;;;;;;;4.60;2.47;;;;;;;;;;5109444;28;20097;-79
2021/12/26 00:54:03;;;;;;;9.40;3.58;;;;;;;;;;5092088;28;20048;-78
2021/12/26 00:56:29;;;;;;;4.88;2.60;;;;;;;;;;5108191;28;20065;-78
2021/12/26 00:58:55;;;;;;;5.38;2.30;;;;;;;;;;5094114;27;20478;-79
2021/12/26 01:01:21;;;;;;;5.68;3.20;;;;;;;;;;5109887;28;20046;-79
2021/12/26 01:03:48;;;;;;;7.03;2.53;;;;;;;;;;5124556;27;20435;-79
2021/12/26 01:06:14;;;;;;;8.30;3.00;;;;;;;;;;5109005;28;20051;-80
2021/12/26 01:08:42;;;;;;;6.28;2.97;;;;;;;;;;5110465;27;20134;-79
2021/12/26 01:11:23;;;;;;;6.38;2.58;;;;;;;;;;5110574;28;20047;-82
2021/12/26 01:13:50;;;;;;;7.72;2.53;;;;;;;;;;5122605;27;20047;-79
2021/12/26 01:16:19;;;;;;;4.65;1.98;;;;;;;;;;5101641;28;20062;-79
2021/12/26 01:18:55;;;;;;;7.60;3.15;;;;;;;;;;5124973;27;20039;-79
2021/12/26 01:21:25;;;;;;;4.95;2.08;;;;;;;;;;5109053;27;20054;-79
2021/12/26 01:23:56;;;;;;;4.60;2.20;;;;;;;;;;5110034;27;20478;-78
2021/12/26 01:26:23;;;;;;;4.13;2.20;;;;;;;;;;5157489;27;20050;-78
2021/12/26 01:28:49;;;;;;;8.25;2.45;;;;;;;;;;5109130;27;20083;-78
2021/12/26 01:31:19;;;;;;;4.50;2.03;;;;;;;;;;5088497;28;20055;-79
2021/12/26 01:33:49;;;;;;;2.72;1.92;;;;;;;;;;5108786;28;20096;-78
2021/12/26 01:36:15;;;;;;;5.20;2.03;;;;;;;;;;5093563;28;20051;-79
2021/12/26 01:38:41;;;;;;;4.00;2.10;;;;;;;;;;5102243;28;20487;-82
2021/12/26 01:41:10;;;;;;;4.88;2.17;;;;;;;;;;5087678;28;20040;-78
2021/12/26 01:43:38;;;;;;;4.45;2.35;;;;;;;;;;5074361;28;20044;-82
2021/12/26 01:46:05;;;;;;;4.15;2.20;;;;;;;;;;5090498;28;20043;-79
2021/12/26 01:48:31;;;;;;;6.82;2.15;;;;;;;;;;5090292;28;20043;-80
2021/12/26 01:50:57;;;;;;;4.18;2.25;;;;;;;;;;5090936;28;20125;-78
2021/12/26 01:53:25;;;;;;;4.03;2.40;;;;;;;;;;5107972;28;20050;-78
2021/12/26 01:55:53;;;;;;;5.28;2.15;;;;;;;;;;5102595;28;20487;-79
2021/12/26 01:58:22;;;;;;;6.15;2.45;;;;;;;;;;5101347;28;20340;-79
2021/12/26 02:00:54;;;;;;;19.63;2.97;;;;;;;;;;5090005;28;20367;-79
2021/12/26 02:03:20;;;;;;;6.95;1.98;;;;;;;;;;5098810;28;20071;-79
2021/12/26 02:05:46;;;;;;;4.00;2.15;;;;;;;;;;5087458;28;20437;-79
2021/12/26 02:08:12;;;;;;;5.97;2.20;;;;;;;;;;5090953;28;20367;-78
2021/12/26 02:10:38;;;;;;;5.25;1.83;;;;;;;;;;5073307;28;20044;-79
2021/12/26 02:13:05;;;;;;;5.95;2.58;;;;;;;;;;5098324;28;20109;-79
2021/12/26 02:15:31;;;;;;;4.18;2.33;;;;;;;;;;5096881;28;20058;-78
2021/12/26 02:17:57;;;;;;;5.10;2.05;;;;;;;;;;5105509;28;20394;-79
2021/12/26 02:20:28;;;;;;;3.90;2.17;;;;;;;;;;5074855;27;20078;-80
2021/12/26 02:23:00;;;;;;;5.18;2.00;;;;;;;;;;5126144;27;20070;-79
2021/12/26 02:25:32;;;;;;;4.00;2.30;;;;;;;;;;5091556;28;20047;-78
2021/12/26 02:27:59;;;;;;;4.25;2.30;;;;;;;;;;5090870;28;20077;-78
2021/12/26 02:30:25;;;;;;;4.07;1.98;;;;;;;;;;5073983;28;20406;-79
2021/12/26 02:32:52;;;;;;;6.13;2.47;;;;;;;;;;5091327;28;20539;-79
2021/12/26 02:35:20;;;;;;;5.30;2.33;;;;;;;;;;5091824;28;20104;-79
2021/12/26 02:37:47;;;;;;;5.72;2.20;;;;;;;;;;5091417;28;20983;-79
2021/12/26 02:40:13;;;;;;;6.28;2.40;;;;;;;;;;5108871;28;20051;-78
2021/12/26 02:42:39;;;;;;;4.22;1.85;;;;;;;;;;5085081;28;20164;-79
2021/12/26 02:45:06;;;;;;;2.72;1.75;;;;;;;;;;5088340;27;20130;-79
2021/12/26 02:47:32;;;;;;;3.00;1.80;;;;;;;;;;5073666;28;20047;-78
2021/12/26 02:49:59;;;;;;;5.05;1.75;;;;;;;;;;5089999;27;20042;-79
2021/12/26 02:52:25;;;;;;;4.35;2.00;;;;;;;;;;5074517;28;20070;-79
2021/12/26 02:54:51;;;;;;;2.92;1.70;;;;;;;;;;5106702;28;20390;-79
2021/12/26 02:57:17;;;;;;;4.80;2.33;;;;;;;;;;5088676;28;20040;-79
2021/12/26 02:59:43;;;;;;;2.75;1.80;;;;;;;;;;5089300;28;20047;-78
2021/12/26 03:02:09;;;;;;;6.30;2.25;;;;;;;;;;5073593;28;20048;-79
2021/12/26 03:04:35;;;;;;;2.47;1.50;;;;;;;;;;5086899;28;20047;-79
2021/12/26 03:07:02;;;;;;;3.13;1.77;;;;;;;;;;5091441;28;20075;-79
2021/12/26 03:09:32;;;;;;;9.80;2.17;;;;;;;;;;5090086;28;20463;-79
2021/12/26 03:11:58;;;;;;;3.35;1.98;;;;;;;;;;5101515;28;20044;-79
2021/12/26 03:14:24;;;;;;;5.88;2.00;;;;;;;;;;5104171;28;20116;-85
2021/12/26 03:16:51;;;;;;;2.30;1.50;;;;;;;;;;5091280;28;20040;-80
2021/12/26 03:19:17;;;;;;;2.75;1.60;;;;;;;;;;5092594;28;20102;-80
2021/12/26 03:21:44;;;;;;;4.75;1.85;;;;;;;;;;5084240;28;20044;-79
2021/12/26 03:24:10;;;;;;;5.43;1.80;;;;;;;;;;5089479;28;20119;-79
2021/12/26 03:26:36;;;;;;;4.38;1.92;;;;;;;;;;5089412;28;20069;-79
2021/12/26 03:29:02;;;;;;;3.15;1.52;;;;;;;;;;5107055;28;20413;-78
2021/12/26 03:31:28;;;;;;;3.85;2.20;;;;;;;;;;5089971;28;20420;-78
2021/12/26 03:33:55;;;;;;;4.35;1.95;;;;;;;;;;5106487;28;20439;-79
2021/12/26 03:36:21;;;;;;;3.55;1.77;;;;;;;;;;5089253;28;20092;-80
2021/12/26 03:38:47;;;;;;;3.13;1.80;;;;;;;;;;5088241;28;20047;-80
2021/12/26 03:41:13;;;;;;;3.42;1.77;;;;;;;;;;5092157;28;20047;-79
2021/12/26 03:43:39;;;;;;;5.07;1.88;;;;;;;;;;5104730;28;20040;-80
2021/12/26 03:46:05;;;;;;;3.65;1.65;;;;;;;;;;5088580;28;20049;-79
2021/12/26 03:48:31;;;;;;;9.02;2.00;;;;;;;;;;5101067;28;20036;-79
2021/12/26 03:50:58;;;;;;;3.90;1.70;;;;;;;;;;5091161;28;20059;-80
2021/12/26 03:53:25;;;;;;;5.05;2.17;;;;;;;;;;5089647;28;20478;-79
2021/12/26 03:55:51;;;;;;;4.68;1.90;;;;;;;;;;5089508;28;20047;-78
2021/12/26 03:58:18;;;;;;;3.40;1.90;;;;;;;;;;5089960;28;20079;-78
2021/12/26 04:00:44;;;;;;;4.55;2.03;;;;;;;;;;5088839;28;20046;-78
2021/12/26 04:03:10;;;;;;;6.05;1.92;;;;;;;;;;5093605;28;20097;-78
2021/12/26 04:05:37;;;;;;;4.95;2.00;;;;;;;;;;5087922;27;20131;-79
2021/12/26 04:08:03;;;;;;;3.38;1.83;;;;;;;;;;5105443;28;20064;-78
2021/12/26 04:10:29;;;;;;;3.47;1.90;;;;;;;;;;5089478;28;20039;-78
2021/12/26 04:12:56;;;;;;;3.75;2.42;;;;;;;;;;5078441;28;20032;-79
2021/12/26 04:15:22;;;;;;;2.97;1.80;;;;;;;;;;5079268;28;20056;-78
2021/12/26 04:17:51;;;;;;;4.07;2.00;;;;;;;;;;5085342;28;20302;-79
2021/12/26 04:20:17;;;;;;;3.67;2.08;;;;;;;;;;5083646;28;20044;-78
2021/12/26 04:22:43;;;;;;;3.53;1.95;;;;;;;;;;5103533;28;20127;-78
2021/12/26 04:25:10;;;;;;;4.38;2.17;;;;;;;;;;5085932;28;20062;-78
2021/12/26 04:27:37;;;;;;;3.38;2.00;;;;;;;;;;5097620;28;20185;-78
2021/12/26 04:30:06;;;;;;;2.83;1.65;;;;;;;;;;5100837;28;20068;-79
2021/12/26 04:32:32;;;;;;;6.38;2.28;;;;;;;;;;5085081;28;20042;-82
2021/12/26 04:34:58;;;;;;;3.20;2.20;;;;;;;;;;5065136;28;20040;-79
2021/12/26 04:37:24;;;;;;;3.42;2.10;;;;;;;;;;5076752;28;20059;-78
2021/12/26 04:39:50;;;;;;;7.60;2.10;;;;;;;;;;5104730;28;20386;-78
2021/12/26 04:42:16;;;;;;;3.65;1.90;;;;;;;;;;5095862;28;20067;-78
2021/12/26 04:44:42;;;;;;;5.20;2.17;;;;;;;;;;5082942;28;20036;-78
2021/12/26 04:47:08;;;;;;;3.25;2.00;;;;;;;;;;5081879;28;20138;-79
2021/12/26 04:49:35;;;;;;;3.95;1.73;;;;;;;;;;5076636;28;20186;-78
2021/12/26 04:52:01;;;;;;;2.40;1.77;;;;;;;;;;5072857;28;20491;-78
2021/12/26 04:54:27;;;;;;;4.65;1.80;;;;;;;;;;5105442;28;20131;-80
2021/12/26 04:56:53;;;;;;;6.13;2.10;;;;;;;;;;5087781;27;20047;-78
2021/12/26 04:59:19;;;;;;;3.97;2.00;;;;;;;;;;5092704;28;20043;-78
2021/12/26 05:01:45;;;;;;;3.63;2.30;;;;;;;;;;5106704;28;20143;-78
2021/12/26 05:04:11;;;;;;;5.35;1.92;;;;;;;;;;5093104;28;20049;-78
2021/12/26 05:06:38;;;;;;;5.57;1.92;;;;;;;;;;5094100;27;20047;-81
2021/12/26 05:09:04;;;;;;;3.35;2.05;;;;;;;;;;5077078;28;20044;-80
2021/12/26 05:11:32;;;;;;;4.80;1.95;;;;;;;;;;5094522;28;20048;-78
2021/12/26 05:13:58;;;;;;;3.15;1.88;;;;;;;;;;5106920;27;20048;-79
2021/12/26 05:16:25;;;;;;;6.78;2.15;;;;;;;;;;5109605;28;20131;-78
2021/12/26 05:18:51;;;;;;;5.45;2.70;;;;;;;;;;5092020;28;20185;-78
2021/12/26 05:21:17;;;;;;;2.70;1.90;;;;;;;;;;5078087;28;20051;-78
2021/12/26 05:23:43;;;;;;;3.05;2.30;;;;;;;;;;5092554;28;20039;-78
2021/12/26 05:26:09;;;;;;;3.55;2.42;;;;;;;;;;5090331;28;20391;-80
2021/12/26 05:28:35;;;;;;;5.57;2.03;;;;;;;;;;5092343;28;20048;-78
2021/12/26 05:31:01;;;;;;;4.82;2.45;;;;;;;;;;5075601;28;20086;-77
2021/12/26 05:33:27;;;;;;;3.92;2.20;;;;;;;;;;5108901;28;20446;-78
2021/12/26 05:35:53;;;;;;;4.47;2.55;;;;;;;;;;5093563;28;20128;-80
2021/12/26 05:38:20;;;;;;;3.63;2.28;;;;;;;;;;5089510;28;20379;-78
2021/12/26 05:40:46;;;;;;;5.55;2.58;;;;;;;;;;5091359;28;20534;-78
2021/12/26 05:43:12;;;;;;;7.95;2.60;;;;;;;;;;5089618;28;20380;-78
2021/12/26 05:45:38;;;;;;;6.70;2.30;;;;;;;;;;5108653;28;20044;-77
2021/12/26 05:48:05;;;;;;;4.20;2.40;;;;;;;;;;5090407;28;20402;-80
2021/12/26 05:50:31;;;;;;;5.60;2.42;;;;;;;;;;5110035;28;20031;-78
2021/12/26 05:52:57;;;;;;;6.32;2.38;;;;;;;;;;5092267;27;20043;-79
2021/12/26 05:55:24;;;;;;;4.22;2.13;;;;;;;;;;5089477;28;20044;-79
2021/12/26 05:57:50;;;;;;;3.22;2.03;;;;;;;;;;5086879;28;20122;-78
2021/12/26 06:00:17;;;;;;;4.68;2.38;;;;;;;;;;5077870;28;20040;-77
2021/12/26 06:02:43;;;;;;;3.55;2.03;;;;;;;;;;5109336;27;20059;-84
2021/12/26 06:05:10;;;;;;;5.22;2.03;;;;;;;;;;5090226;28;20490;-78
2021/12/26 06:07:36;;;;;;;2.88;1.75;;;;;;;;;;5075562;28;20073;-79
2021/12/26 06:10:04;;;;;;;4.05;2.20;;;;;;;;;;5106817;28;20035;-78
2021/12/26 06:12:30;;;;;;;4.72;2.17;;;;;;;;;;5089791;28;20474;-78
2021/12/26 06:14:56;;;;;;;4.63;2.50;;;;;;;;;;5073377;28;20106;-78
2021/12/26 06:17:22;;;;;;;5.68;2.50;;;;;;;;;;5074498;28;20051;-78
2021/12/26 06:19:48;;;;;;;6.03;2.78;;;;;;;;;;5076056;28;20109;-78
2021/12/26 06:22:16;;;;;;;5.80;2.42;;;;;;;;;;5092912;28;20047;-78
2021/12/26 06:24:42;;;;;;;7.47;2.40;;;;;;;;;;5077843;28;20074;-78
2021/12/26 06:27:08;;;;;;;3.63;2.15;;;;;;;;;;5098012;27;20097;-78
2021/12/26 06:29:35;;;;;;;5.68;2.60;;;;;;;;;;5116320;27;20045;-78
2021/12/26 06:32:01;;;;;;;5.25;2.17;;;;;;;;;;5098453;27;20058;-78
2021/12/26 06:34:27;;;;;;;6.63;2.20;;;;;;;;;;5132643;27;20165;-78
2021/12/26 06:36:53;;;;;;;5.70;2.17;;;;;;;;;;5098308;27;20100;-82
2021/12/26 06:39:19;;;;;;;3.75;2.08;;;;;;;;;;5116636;27;20121;-78
2021/12/26 06:41:45;;;;;;;3.70;2.50;;;;;;;;;;5126546;27;20483;-78
2021/12/26 06:44:12;;;;;;;5.30;2.13;;;;;;;;;;5116104;27;20049;-78
2021/12/26 06:46:38;;;;;;;5.15;2.40;;;;;;;;;;5112252;27;20182;-79
2021/12/26 06:49:04;;;;;;;5.25;2.42;;;;;;;;;;5129520;27;20233;-80
2021/12/26 06:51:31;;;;;;;3.97;2.50;;;;;;;;;;5130872;27;20106;-79
2021/12/26 06:53:57;;;;;;;5.50;2.25;;;;;;;;;;5127870;27;20043;-78
2021/12/26 06:56:23;;;;;;;3.85;2.55;;;;;;;;;;5133145;27;20319;-78
2021/12/26 06:58:49;;;;;;;6.57;2.63;;;;;;;;;;5097778;27;20043;-84
2021/12/26 07:01:15;;;;;;;4.90;2.35;;;;;;;;;;5134332;27;20078;-77
2021/12/26 07:03:42;;;;;;;3.22;2.28;;;;;;;;;;5113569;27;20125;-78
2021/12/26 07:06:08;;;;;;;4.90;2.35;;;;;;;;;;5112343;27;20042;-80
2021/12/26 07:08:34;;;;;;;4.50;2.55;;;;;;;;;;5128638;27;20042;-78
2021/12/26 07:11:00;;;;;;;7.30;2.50;;;;;;;;;;5098872;27;20035;-78
2021/12/26 07:13:26;;;;;;;6.70;2.90;;;;;;;;;;5113713;27;20111;-78
2021/12/26 07:15:52;;;;;;;5.22;2.58;;;;;;;;;;5111457;27;20047;-79
2021/12/26 07:18:18;;;;;;;5.97;2.88;;;;;;;;;;5096018;27;20039;-77
2021/12/26 07:20:44;;;;;;;6.30;2.58;;;;;;;;;;5127902;27;20050;-74
2021/12/26 07:23:10;;;;;;;6.13;2.60;;;;;;;;;;5114841;27;20107;-77
2021/12/26 07:25:36;;;;;;;6.68;3.33;;;;;;;;;;5129342;27;20049;-78
2021/12/26 07:28:03;;;;;;;6.30;2.88;;;;;;;;;;5106503;27;20389;-76
2021/12/26 07:30:29;;;;;;;4.30;2.88;;;;;;;;;;5128144;27;20092;-75
2021/12/26 07:32:56;;;;;;;5.18;2.90;;;;;;;;;;5137721;27;20047;-78
2021/12/26 07:35:23;;;;;;;5.55;2.80;;;;;;;;;;5109737;27;20046;-79
2021/12/26 07:37:49;;;;;;;5.97;2.60;;;;;;;;;;5123085;27;20651;-75
2021/12/26 07:40:15;;;;;;;4.55;2.55;;;;;;;;;;5122711;27;20133;-74
2021/12/26 07:42:41;;;;;;;7.55;2.90;;;;;;;;;;5120529;27;20053;-74
2021/12/26 07:45:07;;;;;;;6.90;3.13;;;;;;;;;;5101023;27;20043;-76
2021/12/26 07:47:33;;;;;;;8.48;3.22;;;;;;;;;;5122619;27;20043;-75
2021/12/26 07:50:00;;;;;;;4.25;2.58;;;;;;;;;;5119656;27;20118;-75
2021/12/26 07:52:31;;;;;;;7.53;3.17;;;;;;;;;;5120867;27;20039;-70
2021/12/26 07:54:57;;;;;;;7.47;2.70;;;;;;;;;;5137392;27;20050;-77
2021/12/26 07:57:23;;;;;;;7.97;3.22;;;;;;;;;;5121716;27;20042;-73
2021/12/26 07:59:49;;;;;;;4.50;2.90;;;;;;;;;;5102413;27;20047;-73
2021/12/26 08:02:18;;;;;;;8.93;2.85;;;;;;;;;;5103523;27;20039;-73
2021/12/26 08:04:44;;;;;;;4.95;2.55;;;;;;;;;;5125452;27;20084;-72
2021/12/26 08:07:10;;;;;;;7.40;3.28;;;;;;;;;;5097906;27;20043;-72
2021/12/26 08:09:36;;;;;;;6.57;3.28;;;;;;;;;;5102569;27;20035;-75
2021/12/26 08:12:03;;;;;;;6.35;3.22;;;;;;;;;;5147988;27;20054;-76
2021/12/26 08:14:29;;;;;;;3.40;2.33;;;;;;;;;;5092121;27;20042;-74
2021/12/26 08:16:55;;;;;;;6.07;2.70;;;;;;;;;;5115753;27;20058;-78
2021/12/26 08:19:21;;;;;;;4.57;3.03;;;;;;;;;;5095773;27;20146;-74
2021/12/26 08:21:51;;;;;;;6.40;2.97;;;;;;;;;;5122102;27;20346;-74
2021/12/26 08:24:17;;;;;;;4.75;2.80;;;;;;;;;;5104566;27;20039;-73
2021/12/26 08:26:43;;;;;;;6.57;3.25;;;;;;;;;;5086035;27;20059;-73
2021/12/26 08:29:10;;;;;;;8.15;3.47;;;;;;;;;;5090716;28;20051;-71
2021/12/26 08:31:36;;;;;;;5.65;3.25;;;;;;;;;;5076739;28;20040;-76
2021/12/26 08:34:04;;;;;;;6.53;3.40;;;;;;;;;;5082943;28;20505;-79
2021/12/26 08:36:30;;;;;;;5.80;2.95;;;;;;;;;;5085684;27;20048;-81
2021/12/26 08:38:56;;;;;;;5.80;3.15;;;;;;;;;;5094256;28;20060;-81
2021/12/26 08:41:23;;;;;;;4.45;3.10;;;;;;;;;;5108522;27;20036;-81
2021/12/26 08:43:49;;;;;;;7.72;3.40;;;;;;;;;;5112258;27;20501;-83
2021/12/26 08:46:15;;;;;;;6.13;3.83;;;;;;;;;;5092426;27;20081;-81
2021/12/26 08:48:41;;;;;;;5.28;3.17;;;;;;;;;;5090707;28;20074;-81
2021/12/26 08:51:07;;;;;;;5.85;3.28;;;;;;;;;;5110289;27;20134;-82
2021/12/26 08:53:33;;;;;;;6.93;3.63;;;;;;;;;;5101515;28;20062;-81
2021/12/26 08:55:59;;;;;;;6.80;3.17;;;;;;;;;;5104148;28;20067;-79
2021/12/26 08:58:26;;;;;;;6.45;3.20;;;;;;;;;;5090001;28;20056;-80
2021/12/26 09:00:52;;;;;;;5.10;3.13;;;;;;;;;;5092604;27;20462;-81
2021/12/26 09:03:18;;;;;;;6.22;3.45;;;;;;;;;;5087263;27;20057;-84
2021/12/26 09:05:45;;;;;;;6.82;3.38;;;;;;;;;;5093896;28;20039;-81
2021/12/26 09:08:11;;;;;;;5.18;2.97;;;;;;;;;;5094788;28;20039;-81
2021/12/26 09:10:38;;;;;;;4.88;3.00;;;;;;;;;;5081381;28;20687;-82
2021/12/26 09:13:05;;;;;;;5.25;3.38;;;;;;;;;;5112042;27;20066;-80
2021/12/26 09:15:31;;;;;;;5.97;3.22;;;;;;;;;;5090828;28;20100;-82
2021/12/26 09:17:57;;;;;;;6.68;3.75;;;;;;;;;;5112746;27;20166;-81
2021/12/26 09:20:24;;;;;;;4.85;3.55;;;;;;;;;;5114450;27;20563;-79
2021/12/26 09:22:50;;;;;;;6.15;3.83;;;;;;;;;;5110796;28;20127;-78
2021/12/26 09:25:16;;;;;;;5.50;3.88;;;;;;;;;;5100233;27;20490;-79
2021/12/26 09:27:42;;;;;;;6.05;3.63;;;;;;;;;;5111243;28;20134;-76
2021/12/26 09:30:11;;;;;;;6.43;4.45;;;;;;;;;;5093009;28;20503;-78
2021/12/26 09:32:37;;;;;;;5.55;3.65;;;;;;;;;;5111088;27;20036;-85
2021/12/26 09:35:04;;;;;;;5.28;3.50;;;;;;;;;;5121347;27;20126;-82
2021/12/26 09:37:30;;;;;;;;;;;;;;;;;;5110505;27;20126;-82
2021/12/26 09:39:56;;;;;;;;;;;;;;;;;;5109069;27;20038;-79
2021/12/26 09:42:24;;;;;;;;;;;;;;;;;;5109693;27;19942;-80
2021/12/26 09:44:50;;;;;;;;;;;;;;;;;;5093589;28;19938;-81
2021/12/26 09:47:16;;;;;;;;;;;;;;;;;;5098763;27;19945;-81
2021/12/26 09:49:41;;;;;;;;;;;;;;;;;;5114245;27;19920;-79
2021/12/26 09:52:07;;;;;;;;;;;;;;;;;;5110540;27;19926;-81
2021/12/26 09:54:33;;;;;;;;;;;;;;;;;;5110000;27;20026;-80
2021/12/26 09:56:59;;;;;;;;;;;;;;;;;;5093830;28;19919;-78
2021/12/26 09:59:27;;;;;;;;;;;;;;;;;;5090619;27;19920;-79
2021/12/26 10:01:53;;;;;;;;;;;;;;;;;;5110600;28;19927;-81
2021/12/26 10:04:19;;;;;;;;;;;;;;;;;;5109832;27;19922;-80
2021/12/26 10:06:45;;;;;;;;;;;;;;;;;;5107864;27;19984;-80
2021/12/26 10:09:11;;;;;;;;;;;;;;;;;;5094014;28;19999;-82
2021/12/26 10:11:38;;;;;;;;;;;;;;;;;;5083296;28;19916;-85
2021/12/26 10:14:04;;;;;;;;;;;;;;;;;;5096003;28;19928;-80
2021/12/26 10:16:30;;;;;;;;;;;;;;;;;;5092582;28;19994;-79
2021/12/26 10:18:56;;;;;;;7.22;3.30;;;;;;;;;;5110063;27;19991;-81
2021/12/26 10:21:27;;;;;;;5.63;3.00;;;;;;;;;;5109644;27;20196;-79
2021/12/26 10:23:55;;;;;;;6.65;3.60;;;;;;;;;;5099381;27;20075;-78
2021/12/26 10:26:22;;;;;;;5.72;3.60;;;;;;;;;;5091549;28;20068;-76
2021/12/26 10:29:04;;;;;;;4.50;3.00;;;;;;;;;;5107501;27;20043;-83
2021/12/26 10:31:30;;;;;;;5.40;3.47;;;;;;;;;;5110552;27;20115;-83
2021/12/26 10:33:57;;;;;;;5.78;3.40;;;;;;;;;;5111795;27;20493;-84
2021/12/26 10:36:23;;;;;;;4.90;3.17;;;;;;;;;;5103935;28;20051;-84
2021/12/26 10:39:08;;;;;;;4.63;3.33;;;;;;;;;;5098695;27;20055;-82
2021/12/26 10:41:40;;;;;;;5.55;3.42;;;;;;;;;;5113157;27;20047;-85
2021/12/26 10:44:06;;;;;;;5.88;3.83;;;;;;;;;;5113464;27;20046;-83
2021/12/26 10:46:32;;;;;;;5.40;3.85;;;;;;;;;;5111393;27;20124;-85
2021/12/26 10:49:18;;;;;;;8.52;3.95;;;;;;;;;;5109234;27;20051;-82
2021/12/26 10:51:44;;;;;;;5.13;3.40;;;;;;;;;;5112917;27;20074;-83
2021/12/26 10:54:14;;;;;;;5.72;3.28;;;;;;;;;;5122923;27;20159;-82
2021/12/26 10:56:40;;;;;;;6.53;3.20;;;;;;;;;;5092663;27;20047;-80
2021/12/26 10:59:19;;;;;;;9.15;3.65;;;;;;;;;;5105628;28;20054;-83
2021/12/26 11:01:45;;;;;;;5.38;3.60;;;;;;;;;;5102276;27;20046;-85
2021/12/26 11:04:12;;;;;;;3.70;2.80;;;;;;;;;;5085029;27;20047;-78
2021/12/26 11:06:57;;;;;;;5.95;3.38;;;;;;;;;;5105981;27;20043;-78
2021/12/26 11:09:24;;;;;;;5.70;3.55;;;;;;;;;;5100389;28;20044;-83
2021/12/26 11:12:05;;;;;;;5.45;3.30;;;;;;;;;;5127238;27;20072;-84
2021/12/26 11:14:31;;;;;;;5.38;3.63;;;;;;;;;;5089205;28;20101;-79
2021/12/26 11:16:57;;;;;;;6.30;3.55;;;;;;;;;;5094495;27;20519;-80
2021/12/26 11:19:42;;;;;;;5.63;3.53;;;;;;;;;;5109429;27;20078;-84
2021/12/26 11:22:09;;;;;;;6.68;3.72;;;;;;;;;;5100660;27;20051;-83
2021/12/26 11:24:35;;;;;;;8.52;3.40;;;;;;;;;;5093073;28;20104;-84
2021/12/26 11:27:02;;;;;;;6.25;3.75;;;;;;;;;;5104647;28;20122;-80
2021/12/26 11:29:29;;;;;;;6.53;3.60;;;;;;;;;;5105404;28;20083;-80
2021/12/26 11:31:55;;;;;;;5.50;3.42;;;;;;;;;;5090996;28;20502;-79
2021/12/26 11:34:21;;;;;;;9.07;4.28;;;;;;;;;;5091668;28;20035;-84
2021/12/26 11:36:51;;;;;;;7.22;3.85;;;;;;;;;;5104439;27;20051;-84
2021/12/26 11:39:18;;;;;;;7.47;3.78;;;;;;;;;;5105082;28;20555;-77
2021/12/26 11:41:44;;;;;;;6.43;3.72;;;;;;;;;;5089210;28;20056;-79
2021/12/26 11:44:23;;;;;;;4.60;3.22;;;;;;;;;;5107273;27;20040;-82
2021/12/26 11:46:50;;;;;;;5.30;3.60;;;;;;;;;;5082407;28;20056;-82
2021/12/26 11:49:38;;;;;;;6.88;3.83;;;;;;;;;;5091648;28;20047;-79
2021/12/26 11:52:13;;;;;;;6.35;3.42;;;;;;;;;;5102747;27;20122;-76
2021/12/26 11:54:42;;;;;;;7.20;3.50;;;;;;;;;;5101996;28;20048;-78
2021/12/26 11:57:28;;;;;;;5.32;3.80;;;;;;;;;;5107237;28;20494;-73
2021/12/26 11:59:54;;;;;;;5.72;3.22;;;;;;;;;;5090703;28;20048;-73
2021/12/26 12:02:37;;;;;;;4.93;3.00;;;;;;;;;;5095169;28;20051;-85
2021/12/26 12:05:27;;;;;;;6.70;3.25;;;;;;;;;;5098499;28;20055;-82
2021/12/26 12:07:56;;;;;;;5.28;3.65;;;;;;;;;;5090731;28;20043;-82
2021/12/26 12:10:31;;;;;;;6.60;3.55;;;;;;;;;;5083518;28;20122;-83
2021/12/26 12:12:57;;;;;;;5.13;3.17;;;;;;;;;;5102537;28;20056;-76
2021/12/26 12:15:42;;;;;;;12.25;3.70;;;;;;;;;;5130195;27;20043;-77
2021/12/26 12:18:14;;;;;;;4.95;3.25;;;;;;;;;;5107644;28;20035;-79
2021/12/26 12:20:40;;;;;;;7.63;3.63;;;;;;;;;;5106024;28;20039;-75
2021/12/26 12:23:09;;;;;;;6.65;3.38;;;;;;;;;;5112214;28;20047;-85
2021/12/26 12:25:38;;;;;;;6.20;3.45;;;;;;;;;;5104211;28;20085;-85
2021/12/26 12:28:08;;;;;;;5.38;3.03;;;;;;;;;;5090370;28;20149;-84
2021/12/26 12:30:34;;;;;;;5.28;3.33;;;;;;;;;;5089161;28;20043;-83
2021/12/26 12:33:22;;;;;;;8.77;3.45;;;;;;;;;;5104940;28;20044;-82
2021/12/26 12:35:51;;;;;;;5.57;3.28;;;;;;;;;;5105145;28;20043;-84
2021/12/26 12:38:23;;;;;;;6.00;3.55;;;;;;;;;;5088478;28;20368;-83
2021/12/26 12:40:49;;;;;;;6.85;3.25;;;;;;;;;;5105223;28;20040;-81
2021/12/26 12:43:17;;;;;;;6.60;3.60;;;;;;;;;;5104043;28;20441;-85
2021/12/26 12:45:57;;;;;;;5.43;3.50;;;;;;;;;;5099135;28;20487;-88
2021/12/26 12:48:26;;;;;;;7.05;3.38;;;;;;;;;;5107885;28;20070;-84
2021/12/26 12:50:53;;;;;;;10.15;4.13;;;;;;;;;;5101006;28;20491;-85
2021/12/26 12:53:40;;;;;;;5.75;3.75;;;;;;;;;;5104359;28;20096;-80
2021/12/26 12:56:08;;;;;;;4.40;3.03;;;;;;;;;;5089729;28;20044;-82
2021/12/26 12:58:36;;;;;;;6.35;3.45;;;;;;;;;;5103235;28;20486;-80
2021/12/26 13:01:05;;;;;;;3.55;2.85;;;;;;;;;;5091618;28;20071;-79
2021/12/26 13:03:34;;;;;;;7.53;4.13;;;;;;;;;;5104692;28;20043;-83
2021/12/26 13:06:06;;;;;;;6.90;3.55;;;;;;;;;;5105742;28;20130;-80
2021/12/26 13:08:33;;;;;;;7.25;3.75;;;;;;;;;;5104894;28;20040;-80
2021/12/26 13:11:01;;;;;;;8.15;4.43;;;;;;;;;;5089875;28;20039;-77
2021/12/26 13:13:28;;;;;;;7.95;3.97;;;;;;;;;;5100826;28;20039;-79
2021/12/26 13:16:00;;;;;;;6.35;3.75;;;;;;;;;;5091093;28;20136;-82
2021/12/26 13:18:27;;;;;;;5.53;3.42;;;;;;;;;;5110613;27;20067;-88
2021/12/26 13:20:55;;;;;;;9.35;3.65;;;;;;;;;;5090294;28;20050;-83
2021/12/26 13:23:22;;;;;;;8.00;3.75;;;;;;;;;;5094463;28;20086;-77
2021/12/26 13:25:51;;;;;;;7.38;3.83;;;;;;;;;;5110706;28;20070;-82
2021/12/26 13:28:17;;;;;;;11.88;4.40;;;;;;;;;;5091519;27;20052;-82
2021/12/26 13:30:45;;;;;;;5.35;3.28;;;;;;;;;;5104723;28;20067;-83
2021/12/26 13:33:22;;;;;;;7.10;3.47;;;;;;;;;;5105692;28;20569;-81
2021/12/26 13:35:48;;;;;;;6.00;4.20;;;;;;;;;;5095464;28;20058;-78
2021/12/26 13:38:15;;;;;;;7.68;4.47;;;;;;;;;;5094337;28;20055;-85
2021/12/26 13:40:46;;;;;;;7.25;3.97;;;;;;;;;;5093519;28;20351;-81
2021/12/26 13:43:12;;;;;;;6.18;3.70;;;;;;;;;;5094793;28;20120;-81
2021/12/26 13:45:41;;;;;;;4.78;3.47;;;;;;;;;;5109867;27;20138;-80
2021/12/26 13:48:08;;;;;;;5.18;3.47;;;;;;;;;;5109944;27;20452;-79
2021/12/26 13:50:34;;;;;;;6.97;4.28;;;;;;;;;;5091863;28;20051;-78
2021/12/26 13:53:01;;;;;;;5.32;3.80;;;;;;;;;;5092087;28;20052;-76
2021/12/26 13:55:28;;;;;;;8.32;4.40;;;;;;;;;;5108242;27;20046;-85
2021/12/26 13:58:01;;;;;;;8.57;3.70;;;;;;;;;;5081978;28;20395;-81
2021/12/26 14:00:27;;;;;;;7.25;4.38;;;;;;;;;;5104603;27;20047;-79
2021/12/26 14:02:54;;;;;;;7.20;3.97;;;;;;;;;;5084184;28;20068;-76
2021/12/26 14:05:21;;;;;;;5.95;4.07;;;;;;;;;;5083404;28;20058;-75
2021/12/26 14:07:58;;;;;;;6.43;4.20;;;;;;;;;;5098187;27;20546;-73
2021/12/26 14:10:25;;;;;;;6.82;3.83;;;;;;;;;;5087960;28;20051;-75
2021/12/26 14:12:54;;;;;;;6.05;4.22;;;;;;;;;;5085795;28;20046;-73
2021/12/26 14:15:24;;;;;;;8.38;4.43;;;;;;;;;;5099720;27;20072;-80
2021/12/26 14:18:00;;;;;;;7.13;4.18;;;;;;;;;;5099123;28;20055;-81
2021/12/26 14:20:27;;;;;;;6.60;3.92;;;;;;;;;;5104813;27;20563;-80
2021/12/26 14:22:54;;;;;;;7.30;4.15;;;;;;;;;;5083220;28;20043;-78
2021/12/26 14:25:20;;;;;;;6.65;3.80;;;;;;;;;;5100180;27;20051;-76
2021/12/26 14:27:46;;;;;;;6.47;3.83;;;;;;;;;;5084254;28;20099;-79
2021/12/26 14:30:13;;;;;;;6.22;4.03;;;;;;;;;;5105818;27;20146;-79
2021/12/26 14:32:40;;;;;;;6.85;4.15;;;;;;;;;;5085465;28;20048;-74
2021/12/26 14:35:13;;;;;;;6.55;3.90;;;;;;;;;;5103032;28;20047;-76
2021/12/26 14:37:39;;;;;;;8.80;4.20;;;;;;;;;;5099692;28;20075;-80
2021/12/26 14:40:09;;;;;;;9.63;3.90;;;;;;;;;;5085001;28;20039;-85
2021/12/26 14:42:41;;;;;;;7.30;3.78;;;;;;;;;;5080661;28;20039;-79
2021/12/26 14:45:14;;;;;;;9.60;4.13;;;;;;;;;;5097705;27;20106;-79
2021/12/26 14:47:41;;;;;;;6.03;3.78;;;;;;;;;;5092893;28;20039;-80
2021/12/26 14:50:12;;;;;;;5.00;3.45;;;;;;;;;;5100797;28;20040;-74